< < Back
Terminal Aerodrome Forecast


Current Version              Previous Versions:   1  2  3  4  5  6  7  8  9  

Terminal Aerodrome Forecast

332
FTUS42 KTAE 140522
TAFDHN
TAF
KDHN 140522Z 1406/1506 05004KT P6SM SKC
     FM141700 11008KT P6SM SCT250=

Latest METAR

790
SAUS70 KWBC 142100 RRL
MTRDHN
METAR KDHN 142053Z 11007KT 10SM CLR 15/M08 A3023 RMK AO2 SLP237
T01501078 56026


USA.gov is the U.S. government's official web portal to all federal, state and local government web resources and services.